Time;durP1;ratioP1;P1;durP2;ratioP2;P2;SDS_P1;SDS_P2;PMS_P1;PMS_P2;Temp;Humidity;BMP_temperature;BMP_pressure;BME280_temperature;BME280_humidity;BME280_pressure;Samples;Min_cycle;Max_cycle;Signal;HPM_P1;HPM_P2
2020/12/14 00:01:57;;;;;;;11.02;2.78;;;5.60;80.70;;;;;;5073259;28;20366;-73
2020/12/14 00:04:23;;;;;;;9.37;2.57;;;5.70;80.70;;;;;;5075865;28;20410;-73
2020/12/14 00:06:52;;;;;;;5.80;2.07;;;5.80;80.10;;;;;;5075319;28;20390;-73
2020/12/14 00:09:18;;;;;;;7.47;2.13;;;5.80;80.10;;;;;;5058629;28;20386;-74
2020/12/14 00:11:43;;;;;;;5.97;2.20;;;5.80;79.80;;;;;;5093783;28;20454;-73
2020/12/14 00:14:09;;;;;;;8.25;1.98;;;5.80;79.90;;;;;;5058682;28;20400;-74
2020/12/14 00:16:34;;;;;;;7.00;2.10;;;5.90;80.10;;;;;;5074847;28;20432;-73
2020/12/14 00:19:00;;;;;;;7.13;2.08;;;6.00;79.50;;;;;;5075215;28;20397;-73
2020/12/14 00:21:25;;;;;;;6.10;2.40;;;6.00;79.00;;;;;;5075226;28;20413;-73
2020/12/14 00:23:51;;;;;;;6.40;1.83;;;6.00;79.30;;;;;;5074963;28;20405;-75
2020/12/14 00:26:18;;;;;;;8.53;1.87;;;6.10;78.70;;;;;;5075146;28;20390;-76
2020/12/14 00:28:47;;;;;;;4.57;1.83;;;6.10;78.80;;;;;;5041620;28;20390;-75
2020/12/14 00:31:16;;;;;;;6.90;1.67;;;6.10;79.10;;;;;;5042810;28;20875;-74
2020/12/14 00:33:42;;;;;;;7.25;1.85;;;6.10;78.50;;;;;;5058652;28;20883;-75
2020/12/14 00:36:09;;;;;;;7.00;1.90;;;6.10;79.00;;;;;;5042050;28;20416;-74
2020/12/14 00:38:34;;;;;;;5.40;1.70;;;6.10;78.90;;;;;;5058408;28;20382;-74
2020/12/14 00:41:00;;;;;;;4.55;2.10;;;6.10;78.60;;;;;;5058287;28;20903;-74
2020/12/14 00:43:25;;;;;;;11.32;2.40;;;6.20;78.60;;;;;;5074955;28;20429;-74
2020/12/14 00:45:51;;;;;;;6.25;1.90;;;6.10;78.90;;;;;;5074919;28;20408;-75
2020/12/14 00:48:16;;;;;;;6.05;2.08;;;6.10;79.10;;;;;;5057889;28;20397;-74
2020/12/14 00:50:42;;;;;;;4.65;1.80;;;6.10;79.20;;;;;;5091463;28;20696;-75
2020/12/14 00:53:07;;;;;;;7.57;1.80;;;6.20;78.90;;;;;;5041692;28;20804;-74
2020/12/14 00:55:33;;;;;;;6.13;1.90;;;6.20;79.10;;;;;;5041325;28;20867;-74
2020/12/14 00:57:58;;;;;;;5.67;1.97;;;6.20;78.70;;;;;;5058203;28;20382;-75
2020/12/14 01:00:24;;;;;;;8.47;2.07;;;6.20;78.80;;;;;;5057947;28;20477;-74
2020/12/14 01:02:49;;;;;;;7.40;1.80;;;6.20;78.60;;;;;;5057770;28;20386;-75
2020/12/14 01:05:15;;;;;;;4.70;1.80;;;6.10;79.20;;;;;;5057864;28;20519;-74
2020/12/14 01:07:40;;;;;;;11.93;2.08;;;6.20;79.00;;;;;;5057363;28;20366;-75
2020/12/14 01:10:06;;;;;;;6.97;1.90;;;6.20;79.20;;;;;;5074491;28;20397;-75
2020/12/14 01:12:32;;;;;;;4.75;1.67;;;6.10;79.40;;;;;;5057279;28;20374;-75
2020/12/14 01:14:57;;;;;;;4.47;1.65;;;6.20;78.70;;;;;;5057962;28;20477;-76
2020/12/14 01:17:23;;;;;;;4.80;1.60;;;6.20;78.50;;;;;;5057150;28;20397;-75
2020/12/14 01:19:48;;;;;;;3.77;1.50;;;6.20;79.00;;;;;;5074944;28;20382;-74
2020/12/14 01:22:14;;;;;;;7.20;1.87;;;6.20;78.80;;;;;;5074510;28;20455;-75
2020/12/14 01:24:39;;;;;;;7.40;1.80;;;6.20;78.60;;;;;;5074309;28;20409;-75
2020/12/14 01:27:05;;;;;;;4.77;1.90;;;6.30;78.70;;;;;;5057071;28;20458;-75
2020/12/14 01:29:30;;;;;;;6.38;1.85;;;6.20;78.60;;;;;;5074292;28;20415;-75
2020/12/14 01:31:56;;;;;;;7.35;1.95;;;6.30;78.70;;;;;;5073917;28;20431;-75
2020/12/14 01:34:21;;;;;;;4.82;1.88;;;6.30;78.30;;;;;;5040861;28;20386;-75
2020/12/14 01:36:48;;;;;;;4.88;1.58;;;6.20;78.60;;;;;;5056646;28;20382;-75
2020/12/14 01:39:15;;;;;;;9.25;1.88;;;6.20;78.10;;;;;;5057709;28;20414;-74
2020/12/14 01:41:41;;;;;;;4.88;1.80;;;6.20;78.30;;;;;;5040945;28;20414;-75
2020/12/14 01:44:06;;;;;;;6.73;1.83;;;6.20;79.20;;;;;;5057093;28;20452;-75
2020/12/14 01:46:32;;;;;;;4.93;1.60;;;6.20;78.80;;;;;;5057186;28;20385;-74
2020/12/14 01:49:00;;;;;;;6.73;2.03;;;6.20;78.80;;;;;;5073321;28;20414;-74
2020/12/14 01:51:27;;;;;;;7.15;1.80;;;6.20;78.70;;;;;;5041160;28;20414;-74
2020/12/14 01:53:55;;;;;;;5.65;1.80;;;6.30;78.80;;;;;;5073641;28;20898;-75
2020/12/14 01:56:23;;;;;;;7.22;1.70;;;6.10;79.10;;;;;;5057256;28;20796;-76
2020/12/14 01:58:49;;;;;;;7.60;2.13;;;6.10;79.40;;;;;;5057283;28;20382;-76
2020/12/14 02:01:15;;;;;;;7.17;1.90;;;6.10;79.10;;;;;;5056982;28;20414;-74
2020/12/14 02:03:40;;;;;;;6.33;1.70;;;6.20;79.20;;;;;;5056911;28;20433;-75
2020/12/14 02:06:06;;;;;;;3.33;1.57;;;6.20;78.90;;;;;;5040682;28;20397;-75
2020/12/14 02:08:32;;;;;;;5.53;1.80;;;6.20;79.00;;;;;;5090845;28;20378;-75
2020/12/14 02:10:57;;;;;;;5.47;1.80;;;6.10;78.90;;;;;;5056579;28;20385;-75
2020/12/14 02:13:23;;;;;;;7.63;1.87;;;6.10;79.10;;;;;;5073434;28;20913;-74
2020/12/14 02:15:49;;;;;;;6.75;1.58;;;6.20;78.80;;;;;;5056326;28;20406;-75
2020/12/14 02:18:14;;;;;;;6.00;1.40;;;6.20;78.80;;;;;;5056484;28;20386;-75
2020/12/14 02:20:40;;;;;;;5.55;1.70;;;6.20;78.90;;;;;;5056843;28;20837;-75
2020/12/14 02:23:05;;;;;;;4.27;1.60;;;6.10;79.20;;;;;;5040015;28;20959;-75
2020/12/14 02:25:40;;;;;;;7.10;1.83;;;6.20;78.50;;;;;;5056079;28;20387;-75
2020/12/14 02:28:05;;;;;;;6.10;1.67;;;6.10;78.90;;;;;;5056187;28;20382;-75
2020/12/14 02:30:31;;;;;;;7.53;1.90;;;6.10;78.90;;;;;;5073119;28;20378;-75
2020/12/14 02:32:57;;;;;;;8.00;1.60;;;6.10;78.70;;;;;;5072902;28;20779;-75
2020/12/14 02:35:22;;;;;;;10.33;2.07;;;6.10;78.80;;;;;;5056602;28;20467;-75
2020/12/14 02:37:48;;;;;;;6.45;1.55;;;6.10;79.10;;;;;;5072254;28;20723;-75
2020/12/14 02:40:13;;;;;;;5.07;1.30;;;6.10;79.20;;;;;;5072717;28;20404;-75
2020/12/14 02:42:39;;;;;;;6.25;1.42;;;6.10;79.20;;;;;;5072853;28;20747;-75
2020/12/14 02:45:04;;;;;;;8.27;1.50;;;6.10;79.00;;;;;;5055983;28;20390;-75
2020/12/14 02:47:30;;;;;;;6.77;1.30;;;6.10;79.10;;;;;;5039191;28;20390;-75
2020/12/14 02:49:55;;;;;;;4.60;1.30;;;6.10;79.00;;;;;;5055778;28;20385;-75
2020/12/14 02:52:21;;;;;;;4.73;1.70;;;6.10;78.60;;;;;;5056259;28;20374;-75
2020/12/14 02:54:46;;;;;;;5.43;1.57;;;6.00;79.40;;;;;;5056256;28;20469;-74
2020/12/14 02:57:12;;;;;;;6.07;1.77;;;5.90;79.30;;;;;;5039055;28;20433;-75
2020/12/14 02:59:38;;;;;;;6.13;1.60;;;5.90;80.10;;;;;;5039111;28;20447;-75
2020/12/14 03:02:03;;;;;;;9.90;1.80;;;6.00;79.80;;;;;;5039120;28;20397;-74
2020/12/14 03:04:30;;;;;;;3.97;1.33;;;6.10;79.10;;;;;;5072474;28;20870;-74
2020/12/14 03:06:56;;;;;;;5.70;1.48;;;6.00;79.50;;;;;;5056039;28;20382;-74
2020/12/14 03:09:21;;;;;;;7.80;1.33;;;6.00;79.80;;;;;;5072349;28;20858;-75
2020/12/14 03:11:47;;;;;;;6.20;1.50;;;6.00;80.20;;;;;;5038924;28;20885;-76
2020/12/14 03:14:13;;;;;;;3.88;1.50;;;6.10;79.80;;;;;;5072453;28;20454;-74
2020/12/14 03:16:43;;;;;;;7.15;1.90;;;6.10;80.00;;;;;;5055192;28;20420;-75
2020/12/14 03:19:08;;;;;;;5.75;1.40;;;6.20;79.50;;;;;;5056003;28;20407;-75
2020/12/14 03:21:34;;;;;;;6.88;1.65;;;6.30;79.30;;;;;;5055545;28;20378;-75
2020/12/14 03:24:00;;;;;;;6.38;1.75;;;6.20;79.40;;;;;;5055736;28;20420;-74
2020/12/14 03:26:25;;;;;;;7.70;1.50;;;6.20;79.40;;;;;;5038913;28;20382;-75
2020/12/14 03:28:51;;;;;;;5.95;1.70;;;6.30;79.30;;;;;;5071956;28;20956;-74
2020/12/14 03:31:16;;;;;;;4.03;1.63;;;6.30;79.50;;;;;;5055548;28;20448;-75
2020/12/14 03:33:42;;;;;;;5.30;2.03;;;6.30;79.70;;;;;;5090407;28;20431;-76
2020/12/14 03:36:07;;;;;;;5.50;1.40;;;6.30;79.60;;;;;;5040532;28;20582;-76
2020/12/14 03:38:33;;;;;;;7.30;1.53;;;6.30;79.80;;;;;;5074683;28;20922;-75
2020/12/14 03:41:03;;;;;;;4.97;1.60;;;6.30;79.80;;;;;;5043117;28;20781;-76
2020/12/14 03:43:29;;;;;;;6.30;1.48;;;6.30;80.10;;;;;;5059430;28;20756;-77
2020/12/14 03:45:54;;;;;;;4.53;1.38;;;6.30;79.80;;;;;;5059575;28;20381;-77
2020/12/14 03:48:20;;;;;;;8.02;1.58;;;6.40;79.80;;;;;;5041964;28;20411;-75
2020/12/14 03:50:46;;;;;;;4.82;1.50;;;6.30;80.20;;;;;;5059600;28;20386;-74
2020/12/14 03:53:12;;;;;;;4.80;1.50;;;6.30;80.20;;;;;;5075828;28;20386;-74
2020/12/14 03:55:37;;;;;;;3.85;1.30;;;6.30;80.40;;;;;;5076171;28;20409;-74
2020/12/14 03:58:03;;;;;;;5.47;1.40;;;6.40;80.30;;;;;;5075115;28;20493;-74
2020/12/14 04:00:28;;;;;;;6.85;2.08;;;6.50;80.10;;;;;;5076054;28;20389;-75
2020/12/14 04:02:54;;;;;;;7.47;1.80;;;6.50;80.20;;;;;;5075411;28;20398;-74
2020/12/14 04:05:19;;;;;;;4.07;1.50;;;6.50;80.20;;;;;;5076063;28;20370;-76
2020/12/14 04:07:45;;;;;;;8.38;1.52;;;6.40;80.60;;;;;;5074203;28;20473;-74
2020/12/14 04:10:10;;;;;;;8.60;1.90;;;6.50;80.10;;;;;;5042358;28;20439;-75
2020/12/14 04:12:36;;;;;;;3.80;1.23;;;6.60;80.10;;;;;;5042485;28;20439;-76
2020/12/14 04:15:01;;;;;;;4.53;1.60;;;6.60;80.20;;;;;;5058777;28;20390;-76
2020/12/14 04:17:27;;;;;;;3.00;1.10;;;6.60;80.30;;;;;;5093452;28;20388;-74
2020/12/14 04:19:52;;;;;;;4.43;1.27;;;6.60;80.70;;;;;;5075280;28;20464;-76
2020/12/14 04:22:18;;;;;;;5.20;1.65;;;6.70;80.50;;;;;;5075672;28;20656;-75
2020/12/14 04:24:43;;;;;;;5.85;1.38;;;6.60;80.80;;;;;;5058442;28;20437;-75
2020/12/14 04:27:09;;;;;;;4.95;1.52;;;6.70;80.70;;;;;;5074904;28;20385;-76
2020/12/14 04:29:35;;;;;;;4.00;1.43;;;6.70;81.20;;;;;;5075330;28;20428;-76
2020/12/14 04:32:00;;;;;;;2.37;1.40;;;6.60;81.30;;;;;;5058876;28;20846;-76
2020/12/14 04:34:26;;;;;;;7.90;2.60;;;6.70;80.70;;;;;;5058506;28;20386;-76
2020/12/14 04:36:51;;;;;;;3.20;1.23;;;6.70;81.00;;;;;;5041596;28;20394;-77
2020/12/14 04:39:17;;;;;;;4.53;1.40;;;6.80;80.90;;;;;;5058835;28;20381;-76
2020/12/14 04:41:43;;;;;;;5.15;1.48;;;6.80;80.80;;;;;;5041228;28;20382;-76
2020/12/14 04:44:09;;;;;;;5.78;1.40;;;6.80;81.00;;;;;;5058267;28;20866;-76
2020/12/14 04:46:35;;;;;;;7.13;1.60;;;6.70;81.50;;;;;;5057890;28;20378;-77
2020/12/14 04:49:05;;;;;;;2.77;1.20;;;6.80;81.40;;;;;;5074715;28;20381;-76
2020/12/14 04:51:37;;;;;;;6.18;1.25;;;6.80;81.80;;;;;;5058954;28;20378;-76
2020/12/14 04:54:04;;;;;;;3.58;1.95;;;6.80;81.50;;;;;;5043130;28;20391;-76
2020/12/14 04:56:30;;;;;;;4.05;1.40;;;6.90;81.40;;;;;;5074909;28;20389;-75
2020/12/14 04:58:56;;;;;;;3.53;1.27;;;6.80;81.70;;;;;;5041538;28;20509;-76
2020/12/14 05:01:22;;;;;;;5.07;1.83;;;6.80;82.00;;;;;;5041375;28;20461;-77
2020/12/14 05:03:48;;;;;;;5.10;1.45;;;6.80;81.90;;;;;;5058011;28;20416;-76
2020/12/14 05:06:14;;;;;;;4.90;1.53;;;6.80;81.90;;;;;;5057825;28;20382;-76
2020/12/14 05:08:41;;;;;;;3.45;1.27;;;6.90;82.10;;;;;;5074140;28;20396;-77
2020/12/14 05:11:09;;;;;;;7.78;1.70;;;6.90;81.80;;;;;;5075090;28;20835;-76
2020/12/14 05:13:35;;;;;;;3.22;1.20;;;6.90;82.10;;;;;;5058048;28;20476;-76
2020/12/14 05:16:01;;;;;;;5.00;1.50;;;6.90;81.90;;;;;;5074670;28;20477;-77
2020/12/14 05:18:27;;;;;;;6.17;1.70;;;6.90;82.20;;;;;;5057095;28;20402;-77
2020/12/14 05:20:59;;;;;;;4.32;1.40;;;6.90;82.60;;;;;;5041353;28;20474;-76
2020/12/14 05:23:25;;;;;;;5.43;1.30;;;6.90;82.20;;;;;;5074574;28;20410;-76
2020/12/14 05:25:50;;;;;;;3.70;1.27;;;6.90;82.50;;;;;;5057734;28;20382;-76
2020/12/14 05:28:16;;;;;;;5.05;1.30;;;6.80;82.70;;;;;;5073348;28;20394;-77
2020/12/14 05:30:49;;;;;;;7.57;1.40;;;6.80;82.90;;;;;;5057807;28;20439;-76
2020/12/14 05:33:21;;;;;;;4.57;1.45;;;6.80;83.00;;;;;;5074101;28;20452;-76
2020/12/14 05:35:47;;;;;;;5.45;1.35;;;6.80;82.90;;;;;;5092359;28;20475;-76
2020/12/14 05:38:26;;;;;;;3.33;1.60;;;6.80;82.80;;;;;;5056754;28;20891;-77
2020/12/14 05:40:53;;;;;;;4.47;1.50;;;6.80;83.00;;;;;;5058705;28;20374;-76
2020/12/14 05:43:21;;;;;;;3.83;1.40;;;6.80;83.30;;;;;;5057597;28;20410;-77
2020/12/14 05:45:48;;;;;;;5.22;1.60;;;6.70;83.50;;;;;;5057651;28;20859;-76
2020/12/14 05:48:31;;;;;;;3.65;1.35;;;6.80;83.50;;;;;;5057279;28;20406;-77
2020/12/14 05:51:01;;;;;;;4.32;1.42;;;6.80;83.70;;;;;;5091728;28;20378;-76
2020/12/14 05:53:45;;;;;;;4.32;1.40;;;6.80;83.70;;;;;;5057711;28;20386;-76
2020/12/14 05:56:10;;;;;;;4.40;1.50;;;6.80;83.70;;;;;;5057320;28;20390;-76
2020/12/14 05:58:37;;;;;;;7.77;1.90;;;6.80;84.10;;;;;;5039559;28;20898;-75
2020/12/14 06:01:04;;;;;;;4.60;1.50;;;6.80;84.30;;;;;;5057225;28;20381;-76
2020/12/14 06:03:30;;;;;;;4.20;1.40;;;6.80;84.30;;;;;;5056798;28;20406;-76
2020/12/14 06:06:06;;;;;;;4.35;1.45;;;6.70;84.50;;;;;;5057083;28;20382;-76
2020/12/14 06:08:58;;;;;;;5.60;1.50;;;6.80;84.60;;;;;;5056243;28;20397;-77
2020/12/14 06:11:26;;;;;;;4.72;1.63;;;6.80;84.90;;;;;;5059790;28;20405;-76
2020/12/14 06:14:02;;;;;;;4.00;1.50;;;6.80;85.00;;;;;;5073620;28;20381;-76
2020/12/14 06:16:29;;;;;;;2.23;1.40;;;6.80;84.70;;;;;;5057717;28;20542;-76
2020/12/14 06:18:56;;;;;;;4.13;1.38;;;6.90;84.90;;;;;;5073197;28;20435;-76
2020/12/14 06:21:30;;;;;;;4.60;1.80;;;7.00;84.80;;;;;;5056768;28;20386;-76
2020/12/14 06:23:57;;;;;;;2.92;1.40;;;7.00;85.10;;;;;;5056451;28;20981;-76
2020/12/14 06:26:22;;;;;;;4.73;1.37;;;7.00;85.00;;;;;;5056108;28;20869;-76
2020/12/14 06:28:52;;;;;;;4.10;1.50;;;7.10;84.90;;;;;;5039713;28;20382;-76
2020/12/14 06:31:37;;;;;;;4.68;1.55;;;7.00;85.10;;;;;;5072572;28;20885;-76
2020/12/14 06:34:05;;;;;;;2.45;1.48;;;7.00;85.30;;;;;;5056457;28;20386;-77
2020/12/14 06:36:40;;;;;;;3.65;1.30;;;7.00;85.20;;;;;;5056675;28;20378;-76
2020/12/14 06:39:25;;;;;;;4.25;1.70;;;7.00;85.40;;;;;;5055903;28;20448;-76
2020/12/14 06:41:50;;;;;;;5.53;1.42;;;7.00;85.30;;;;;;5073101;28;20431;-76
2020/12/14 06:44:16;;;;;;;4.22;1.80;;;7.00;85.10;;;;;;5039319;28;20494;-76
2020/12/14 06:46:41;;;;;;;6.65;1.75;;;7.00;85.10;;;;;;5046159;28;20896;-76
2020/12/14 06:49:09;;;;;;;4.33;1.70;;;6.90;85.30;;;;;;5055266;28;20726;-77
2020/12/14 06:51:53;;;;;;;4.82;1.40;;;7.00;85.30;;;;;;5050401;28;20394;-76
2020/12/14 06:54:46;;;;;;;3.90;1.60;;;7.00;84.90;;;;;;5071629;28;20456;-76
2020/12/14 06:57:17;;;;;;;7.28;1.40;;;7.00;85.00;;;;;;5071726;28;20384;-77
2020/12/14 06:59:54;;;;;;;6.00;1.70;;;7.00;84.90;;;;;;5056315;28;20382;-76
2020/12/14 07:02:34;;;;;;;3.53;1.50;;;7.00;84.90;;;;;;5039207;28;20398;-76
2020/12/14 07:05:00;;;;;;;7.10;1.50;;;7.00;85.00;;;;;;5072518;28;20592;-76
2020/12/14 07:07:25;;;;;;;5.07;1.40;;;7.00;85.10;;;;;;5038782;28;20465;-77
2020/12/14 07:09:51;;;;;;;2.90;1.37;;;7.00;85.00;;;;;;5089325;28;20389;-76
2020/12/14 07:12:16;;;;;;;7.07;1.90;;;7.10;84.80;;;;;;5056070;28;20386;-76
2020/12/14 07:14:46;;;;;;;5.35;1.50;;;7.00;84.80;;;;;;5090578;28;20378;-76
2020/12/14 07:17:28;;;;;;;4.55;1.55;;;7.00;85.10;;;;;;5072618;28;20461;-76
2020/12/14 07:19:54;;;;;;;7.63;1.60;;;7.00;84.90;;;;;;5055693;28;20413;-77
2020/12/14 07:22:20;;;;;;;6.45;1.75;;;7.10;84.70;;;;;;5072553;28;20379;-76
2020/12/14 07:24:51;;;;;;;4.35;1.63;;;7.10;84.70;;;;;;5088026;28;20520;-75
2020/12/14 07:27:16;;;;;;;6.28;1.42;;;7.10;84.90;;;;;;5053336;28;20382;-76
2020/12/14 07:29:42;;;;;;;4.57;1.53;;;7.20;84.80;;;;;;5070584;28;20446;-77
2020/12/14 07:32:07;;;;;;;4.13;1.50;;;7.10;84.90;;;;;;5071123;28;20409;-77
2020/12/14 07:34:33;;;;;;;4.20;1.52;;;7.20;85.00;;;;;;5070709;28;20436;-75
2020/12/14 07:36:58;;;;;;;5.57;1.60;;;7.20;85.20;;;;;;5070686;28;20393;-77
2020/12/14 07:39:24;;;;;;;3.63;1.42;;;7.20;85.00;;;;;;5071501;28;20909;-77
2020/12/14 07:41:49;;;;;;;3.33;1.60;;;7.20;85.20;;;;;;5055275;28;20464;-76
2020/12/14 07:44:15;;;;;;;4.70;1.63;;;7.10;85.50;;;;;;5055528;28;20472;-77
2020/12/14 07:46:41;;;;;;;3.72;1.60;;;7.20;85.50;;;;;;5071874;28;20385;-76
2020/12/14 07:49:11;;;;;;;4.63;1.40;;;7.30;85.30;;;;;;5072271;28;20382;-76
2020/12/14 07:51:39;;;;;;;3.67;1.90;;;7.30;85.30;;;;;;5090050;28;20386;-76
2020/12/14 07:54:18;;;;;;;4.30;1.60;;;7.40;85.20;;;;;;5072352;28;20804;-76
2020/12/14 07:57:03;;;;;;;5.50;2.42;;;7.40;85.30;;;;;;5071583;28;20835;-76
2020/12/14 07:59:29;;;;;;;3.53;1.50;;;7.40;85.60;;;;;;5073667;28;20473;-76
2020/12/14 08:01:55;;;;;;;3.97;1.52;;;7.40;85.90;;;;;;5055357;28;20484;-76
2020/12/14 08:04:28;;;;;;;4.93;1.80;;;7.40;86.30;;;;;;5089988;28;20508;-76
2020/12/14 08:06:54;;;;;;;5.40;1.73;;;7.40;86.30;;;;;;5071580;28;20863;-76
2020/12/14 08:09:22;;;;;;;5.50;2.38;;;7.40;86.70;;;;;;5071851;28;20428;-74
2020/12/14 08:11:48;;;;;;;2.78;1.42;;;7.40;87.00;;;;;;5072040;28;20389;-76
2020/12/14 08:14:17;;;;;;;3.70;1.75;;;7.40;87.30;;;;;;5071239;28;20730;-75
2020/12/14 08:16:44;;;;;;;4.80;1.83;;;7.30;88.50;;;;;;5070904;28;20979;-74
2020/12/14 08:19:17;;;;;;;3.47;1.70;;;7.30;89.60;;;;;;5054985;28;20766;-74
2020/12/14 08:21:43;;;;;;;4.07;1.80;;;7.10;90.30;;;;;;5054984;28;20390;-76
2020/12/14 08:24:09;;;;;;;4.17;2.03;;;7.10;90.80;;;;;;5040921;28;20410;-74
2020/12/14 08:26:34;;;;;;;4.28;1.88;;;7.10;91.50;;;;;;5058148;28;20421;-77
2020/12/14 08:29:00;;;;;;;6.23;2.57;;;7.00;92.30;;;;;;5058796;28;20889;-76
2020/12/14 08:31:26;;;;;;;5.97;2.40;;;6.90;92.70;;;;;;5041651;28;20439;-75
2020/12/14 08:33:53;;;;;;;9.10;3.03;;;7.00;92.70;;;;;;5075446;28;20684;-76
2020/12/14 08:36:18;;;;;;;4.90;2.33;;;6.90;92.90;;;;;;5041575;28;20813;-75
2020/12/14 08:38:44;;;;;;;5.50;2.50;;;7.00;93.10;;;;;;5074779;28;20469;-75
2020/12/14 08:41:10;;;;;;;9.47;2.50;;;6.90;93.10;;;;;;5074873;28;20374;-74
2020/12/14 08:43:36;;;;;;;6.37;2.70;;;6.90;93.60;;;;;;5058421;28;20449;-76
2020/12/14 08:46:15;;;;;;;7.65;3.13;;;6.90;94.10;;;;;;5074892;28;20865;-75
2020/12/14 08:48:44;;;;;;;4.95;2.47;;;6.90;94.30;;;;;;5041860;28;20942;-75
2020/12/14 08:51:12;;;;;;;6.45;2.50;;;6.90;94.10;;;;;;5055026;28;20398;-75
2020/12/14 08:53:38;;;;;;;8.20;2.83;;;6.90;94.10;;;;;;5074579;28;20862;-75
2020/12/14 08:56:08;;;;;;;7.00;2.53;;;6.90;94.00;;;;;;5075010;28;20373;-74
2020/12/14 08:58:55;;;;;;;5.03;2.80;;;6.90;93.80;;;;;;5057320;28;20390;-76
2020/12/14 09:01:25;;;;;;;5.70;2.20;;;6.90;93.90;;;;;;5091481;28;20780;-74
2020/12/14 09:03:54;;;;;;;7.78;2.30;;;7.00;93.60;;;;;;5074340;28;20591;-75
2020/12/14 09:06:20;;;;;;;5.97;2.83;;;7.00;93.60;;;;;;5057836;28;20878;-76
2020/12/14 09:09:06;;;;;;;5.00;2.93;;;7.10;93.50;;;;;;5092059;28;20392;-75
2020/12/14 09:11:36;;;;;;;5.25;2.40;;;7.10;93.60;;;;;;5074353;28;20414;-74
2020/12/14 09:14:04;;;;;;;4.07;2.17;;;7.10;93.10;;;;;;5074703;28;20382;-74
2020/12/14 09:16:29;;;;;;;8.57;2.30;;;7.20;93.50;;;;;;5074352;28;20378;-74
2020/12/14 09:18:55;;;;;;;6.90;2.30;;;7.20;93.20;;;;;;5057436;28;20378;-75
2020/12/14 09:21:21;;;;;;;7.45;2.30;;;7.20;93.30;;;;;;5074247;28;20380;-75
2020/12/14 09:24:15;;;;;;;4.18;2.35;;;7.30;93.20;;;;;;5057748;28;21056;-74
2020/12/14 09:26:41;;;;;;;7.68;2.60;;;7.20;93.60;;;;;;5091768;28;20381;-75
2020/12/14 09:29:10;;;;;;;5.72;2.00;;;7.30;93.20;;;;;;5057825;28;20579;-74
2020/12/14 09:31:36;;;;;;;8.70;2.08;;;7.40;93.20;;;;;;5092253;28;20404;-75
2020/12/14 09:34:02;;;;;;;5.53;2.10;;;7.40;93.00;;;;;;5073727;28;20812;-74
2020/12/14 09:36:28;;;;;;;5.50;2.00;;;7.40;93.00;;;;;;5074365;28;20473;-76
2020/12/14 09:38:54;;;;;;;4.57;1.83;;;7.50;92.90;;;;;;5072580;28;20378;-74
2020/12/14 09:41:22;;;;;;;6.25;1.90;;;7.50;93.00;;;;;;5074372;28;20412;-74
2020/12/14 09:43:47;;;;;;;4.43;2.25;;;7.50;92.90;;;;;;5073916;28;20406;-75
2020/12/14 09:46:13;;;;;;;4.57;2.15;;;7.60;92.50;;;;;;5074232;28;20375;-75
2020/12/14 09:48:40;;;;;;;5.40;1.90;;;7.70;92.40;;;;;;5073034;28;20413;-76
2020/12/14 09:51:06;;;;;;;7.63;2.75;;;7.80;92.10;;;;;;5074140;28;20378;-76
2020/12/14 09:53:32;;;;;;;2.53;1.92;;;7.80;92.50;;;;;;5073905;28;20389;-75
2020/12/14 09:55:58;;;;;;;6.97;2.20;;;7.80;92.00;;;;;;5073878;28;20385;-75
2020/12/14 09:58:23;;;;;;;8.63;1.90;;;7.80;92.60;;;;;;5073170;28;20516;-77
2020/12/14 10:00:49;;;;;;;3.90;1.98;;;7.90;92.60;;;;;;5057036;28;20452;-73
2020/12/14 10:03:14;;;;;;;4.57;2.05;;;7.90;92.40;;;;;;5056239;28;20394;-74
2020/12/14 10:05:47;;;;;;;6.00;2.20;;;7.80;92.60;;;;;;5073370;28;20382;-78
2020/12/14 10:08:15;;;;;;;7.28;2.80;;;7.80;93.00;;;;;;5074266;28;20459;-77
2020/12/14 10:10:42;;;;;;;5.10;2.10;;;7.80;92.50;;;;;;5073357;28;20413;-74
2020/12/14 10:13:07;;;;;;;3.67;1.98;;;7.80;93.10;;;;;;5073663;28;20370;-75
2020/12/14 10:15:33;;;;;;;3.85;2.03;;;7.80;93.00;;;;;;5073184;28;20411;-75
2020/12/14 10:17:58;;;;;;;10.15;2.35;;;7.80;93.00;;;;;;5089391;28;20477;-76
2020/12/14 10:20:24;;;;;;;4.43;2.20;;;7.80;93.30;;;;;;5039045;28;20875;-76
2020/12/14 10:22:49;;;;;;;5.00;2.20;;;7.70;93.30;;;;;;5072510;28;20386;-76
2020/12/14 10:25:15;;;;;;;3.83;2.40;;;7.60;93.80;;;;;;5056180;28;20397;-76
2020/12/14 10:27:40;;;;;;;4.10;2.23;;;7.60;93.40;;;;;;5072661;28;20793;-76
2020/12/14 10:30:06;;;;;;;6.05;2.50;;;7.60;93.80;;;;;;5072750;28;20904;-77
2020/12/14 10:32:31;;;;;;;5.60;2.50;;;7.60;93.70;;;;;;5039700;28;20514;-74
2020/12/14 10:34:57;;;;;;;6.10;2.40;;;7.60;94.10;;;;;;5039718;28;20727;-76
2020/12/14 10:37:22;;;;;;;6.70;2.83;;;7.70;93.90;;;;;;5038894;28;20398;-75
2020/12/14 10:39:48;;;;;;;7.80;2.30;;;7.70;93.40;;;;;;5039572;28;20402;-74
2020/12/14 10:42:14;;;;;;;6.03;2.60;;;7.80;93.00;;;;;;5055694;28;20400;-76
2020/12/14 10:44:40;;;;;;;5.32;2.72;;;7.80;93.20;;;;;;5072201;28;20936;-74
2020/12/14 10:47:05;;;;;;;5.13;2.70;;;7.80;93.70;;;;;;5054874;28;20369;-74
2020/12/14 10:49:31;;;;;;;8.32;2.70;;;7.90;92.60;;;;;;5056151;28;20370;-74
2020/12/14 10:51:57;;;;;;;6.25;2.10;;;7.90;93.00;;;;;;5072469;28;20374;-77
2020/12/14 10:54:23;;;;;;;7.68;2.50;;;7.90;92.20;;;;;;5039502;28;20401;-74
2020/12/14 10:56:48;;;;;;;5.00;2.17;;;7.90;92.40;;;;;;5055172;28;20889;-75
2020/12/14 10:59:14;;;;;;;4.93;2.40;;;7.90;92.20;;;;;;5072806;28;20650;-75
2020/12/14 11:01:39;;;;;;;6.35;2.20;;;7.90;92.70;;;;;;5038836;28;20470;-76
2020/12/14 11:04:06;;;;;;;8.68;3.13;;;7.90;92.50;;;;;;5054942;28;21492;-76
2020/12/14 11:06:32;;;;;;;8.82;2.70;;;7.90;93.10;;;;;;5072692;28;20429;-74
2020/12/14 11:08:58;;;;;;;6.72;3.08;;;7.90;92.90;;;;;;5055335;28;20458;-75
2020/12/14 11:11:24;;;;;;;8.48;2.92;;;8.00;93.10;;;;;;5072625;28;20742;-74
2020/12/14 11:13:50;;;;;;;7.65;2.35;;;8.00;93.60;;;;;;5038879;28;20481;-74
2020/12/14 11:16:16;;;;;;;7.27;2.77;;;8.00;93.70;;;;;;5055611;28;20770;-77
2020/12/14 11:18:42;;;;;;;7.90;3.53;;;8.00;93.70;;;;;;5055159;28;20870;-73
2020/12/14 11:21:07;;;;;;;5.95;2.80;;;7.90;93.50;;;;;;5055978;28;20381;-75
2020/12/14 11:23:33;;;;;;;6.45;3.05;;;8.00;93.80;;;;;;5055657;28;20417;-74
2020/12/14 11:25:58;;;;;;;5.82;2.35;;;7.90;93.50;;;;;;5055737;28;20696;-75
2020/12/14 11:28:25;;;;;;;5.10;2.72;;;8.00;93.50;;;;;;5055313;28;20413;-75
2020/12/14 11:30:50;;;;;;;8.57;2.83;;;8.00;94.00;;;;;;5090667;28;20435;-75
2020/12/14 11:33:16;;;;;;;6.43;2.73;;;8.00;94.10;;;;;;5055356;28;20378;-75
2020/12/14 11:35:43;;;;;;;6.03;2.33;;;8.00;93.80;;;;;;5072305;28;20427;-74
2020/12/14 11:38:08;;;;;;;5.90;2.38;;;8.00;93.80;;;;;;5072138;28;20370;-75
2020/12/14 11:40:34;;;;;;;5.30;2.17;;;8.00;93.40;;;;;;5055938;28;20374;-75
2020/12/14 11:43:00;;;;;;;5.17;2.33;;;8.00;93.50;;;;;;5055513;28;20854;-75
2020/12/14 11:45:27;;;;;;;7.13;2.90;;;8.10;93.40;;;;;;5055191;28;20382;-75
2020/12/14 11:47:53;;;;;;;7.25;2.60;;;8.10;93.30;;;;;;5072136;28;20438;-75
2020/12/14 11:50:18;;;;;;;6.50;2.30;;;8.10;93.30;;;;;;5055305;28;20474;-76
2020/12/14 11:52:46;;;;;;;4.93;2.37;;;8.10;92.70;;;;;;5055482;28;20396;-74
2020/12/14 11:55:12;;;;;;;5.47;2.20;;;8.20;93.10;;;;;;5055634;28;20394;-75
2020/12/14 11:57:38;;;;;;;8.75;3.03;;;8.20;93.00;;;;;;5073583;28;20382;-76
2020/12/14 12:00:05;;;;;;;7.33;2.90;;;8.40;92.40;;;;;;5058693;28;20374;-74
2020/12/14 12:02:31;;;;;;;6.25;2.60;;;8.40;92.00;;;;;;5075517;28;20481;-74
2020/12/14 12:04:56;;;;;;;8.30;2.40;;;8.40;91.90;;;;;;5075869;28;20535;-74
2020/12/14 12:07:22;;;;;;;6.03;2.47;;;8.50;92.30;;;;;;5075141;28;20865;-76
2020/12/14 12:09:47;;;;;;;4.95;2.13;;;8.50;91.90;;;;;;5042315;28;20974;-74
2020/12/14 12:12:13;;;;;;;4.97;2.30;;;8.60;92.10;;;;;;5042241;28;20870;-76
2020/12/14 12:14:38;;;;;;;4.77;1.97;;;8.60;90.90;;;;;;5075749;28;20374;-75
2020/12/14 12:17:04;;;;;;;5.50;2.20;;;8.70;90.60;;;;;;5074943;28;20439;-75
2020/12/14 12:19:29;;;;;;;4.55;2.10;;;8.70;90.10;;;;;;5059127;28;20382;-75
2020/12/14 12:21:56;;;;;;;7.93;2.90;;;8.70;90.30;;;;;;5058659;28;20389;-75
2020/12/14 12:24:22;;;;;;;5.95;2.30;;;8.70;90.50;;;;;;5059007;28;20740;-74
2020/12/14 12:26:49;;;;;;;5.82;2.28;;;8.70;90.70;;;;;;5041343;28;20382;-75
2020/12/14 12:29:15;;;;;;;7.65;2.10;;;8.70;90.50;;;;;;5059067;28;20380;-74
2020/12/14 12:31:41;;;;;;;4.70;2.37;;;8.70;89.60;;;;;;5075043;28;20399;-74
2020/12/14 12:34:07;;;;;;;5.53;1.90;;;8.80;89.90;;;;;;5041279;28;20398;-74
2020/12/14 12:36:32;;;;;;;5.33;2.07;;;8.90;88.80;;;;;;5074978;28;20382;-75
2020/12/14 12:38:58;;;;;;;4.07;2.13;;;8.90;88.90;;;;;;5058034;28;20390;-75
2020/12/14 12:41:23;;;;;;;4.93;2.03;;;9.00;88.70;;;;;;5058642;28;20382;-75
2020/12/14 12:43:49;;;;;;;5.05;2.03;;;9.10;88.60;;;;;;5074834;28;20410;-75
2020/12/14 12:46:14;;;;;;;4.30;1.85;;;9.00;88.60;;;;;;5075131;28;20377;-77
2020/12/14 12:48:40;;;;;;;7.53;1.93;;;9.10;88.60;;;;;;5074626;28;20374;-75
2020/12/14 12:51:08;;;;;;;8.37;1.97;;;9.10;88.80;;;;;;5057137;28;20911;-75
2020/12/14 12:53:34;;;;;;;5.63;2.08;;;9.10;88.40;;;;;;5057840;28;20408;-75
2020/12/14 12:56:00;;;;;;;7.23;1.87;;;9.20;88.00;;;;;;5041409;28;20394;-74
2020/12/14 12:58:27;;;;;;;5.13;1.90;;;9.10;87.60;;;;;;5074060;28;20402;-74